sensor_id;sensor_type;location;lat;lon;timestamp;temperature;humidity
7622;DHT22;3852;52.284;8.032;2022-08-16T00:00:19;20.50;99.90
7622;DHT22;3852;52.284;8.032;2022-08-16T00:02:47;20.60;99.90
7622;DHT22;3852;52.284;8.032;2022-08-16T00:05:14;20.60;99.90
7622;DHT22;3852;52.284;8.032;2022-08-16T00:07:40;20.50;99.90
7622;DHT22;3852;52.284;8.032;2022-08-16T00:10:09;20.50;99.90
7622;DHT22;3852;52.284;8.032;2022-08-16T00:12:37;20.50;99.90
7622;DHT22;3852;52.284;8.032;2022-08-16T00:15:11;20.60;99.90
7622;DHT22;3852;52.284;8.032;2022-08-16T00:17:39;20.60;99.90
7622;DHT22;3852;52.284;8.032;2022-08-16T00:20:07;20.60;99.90
7622;DHT22;3852;52.284;8.032;2022-08-16T00:22:35;20.50;99.90
7622;DHT22;3852;52.284;8.032;2022-08-16T00:25:05;20.50;99.90
7622;DHT22;3852;52.284;8.032;2022-08-16T00:27:32;20.50;99.90
7622;DHT22;3852;52.284;8.032;2022-08-16T00:29:57;20.50;99.90
7622;DHT22;3852;52.284;8.032;2022-08-16T00:32:23;20.40;99.90
7622;DHT22;3852;52.284;8.032;2022-08-16T00:34:49;20.40;99.90
7622;DHT22;3852;52.284;8.032;2022-08-16T00:37:17;20.40;99.90
7622;DHT22;3852;52.284;8.032;2022-08-16T00:39:44;20.30;99.90
7622;DHT22;3852;52.284;8.032;2022-08-16T00:42:10;20.30;99.90
7622;DHT22;3852;52.284;8.032;2022-08-16T00:44:36;20.30;99.90
7622;DHT22;3852;52.284;8.032;2022-08-16T00:47:09;20.30;99.90
7622;DHT22;3852;52.284;8.032;2022-08-16T00:49:37;20.20;99.90
7622;DHT22;3852;52.284;8.032;2022-08-16T00:52:03;20.20;99.90
7622;DHT22;3852;52.284;8.032;2022-08-16T00:54:30;20.10;99.90
7622;DHT22;3852;52.284;8.032;2022-08-16T00:56:58;20.10;99.90
7622;DHT22;3852;52.284;8.032;2022-08-16T00:59:30;20.10;99.90
7622;DHT22;3852;52.284;8.032;2022-08-16T01:01:58;20.10;99.90
7622;DHT22;3852;52.284;8.032;2022-08-16T01:04:26;20.10;99.90
7622;DHT22;3852;52.284;8.032;2022-08-16T01:06:52;20.10;99.90
7622;DHT22;3852;52.284;8.032;2022-08-16T01:09:19;20.10;99.90
7622;DHT22;3852;52.284;8.032;2022-08-16T01:11:46;20.10;99.90
7622;DHT22;3852;52.284;8.032;2022-08-16T01:14:17;20.10;99.90
7622;DHT22;3852;52.284;8.032;2022-08-16T01:16:46;20.10;99.90
7622;DHT22;3852;52.284;8.032;2022-08-16T01:27:29;19.90;99.90
7622;DHT22;3852;52.284;8.032;2022-08-16T01:30:03;19.90;99.90
7622;DHT22;3852;52.284;8.032;2022-08-16T01:32:35;19.90;99.90
7622;DHT22;3852;52.284;8.032;2022-08-16T01:35:20;19.90;99.90
7622;DHT22;3852;52.284;8.032;2022-08-16T01:37:52;19.80;99.90
7622;DHT22;3852;52.284;8.032;2022-08-16T01:40:22;19.80;99.90
7622;DHT22;3852;52.284;8.032;2022-08-16T01:42:51;19.80;99.90
7622;DHT22;3852;52.284;8.032;2022-08-16T01:45:18;19.80;99.90
7622;DHT22;3852;52.284;8.032;2022-08-16T01:47:46;19.80;99.90
7622;DHT22;3852;52.284;8.032;2022-08-16T01:50:13;19.80;99.90
7622;DHT22;3852;52.284;8.032;2022-08-16T01:52:40;19.80;99.90
7622;DHT22;3852;52.284;8.032;2022-08-16T01:55:09;19.80;99.90
7622;DHT22;3852;52.284;8.032;2022-08-16T01:57:35;19.80;99.90
7622;DHT22;3852;52.284;8.032;2022-08-16T02:00:03;19.80;99.90
7622;DHT22;3852;52.284;8.032;2022-08-16T02:02:31;19.80;99.90
7622;DHT22;3852;52.284;8.032;2022-08-16T02:04:57;19.80;99.90
7622;DHT22;3852;52.284;8.032;2022-08-16T02:07:25;19.80;99.90
7622;DHT22;3852;52.284;8.032;2022-08-16T02:09:51;19.80;99.90
7622;DHT22;3852;52.284;8.032;2022-08-16T02:12:18;19.80;99.90
7622;DHT22;3852;52.284;8.032;2022-08-16T02:14:44;19.80;99.90
7622;DHT22;3852;52.284;8.032;2022-08-16T02:17:10;19.80;99.90
7622;DHT22;3852;52.284;8.032;2022-08-16T02:19:38;19.80;99.90
7622;DHT22;3852;52.284;8.032;2022-08-16T02:22:07;19.80;99.90
7622;DHT22;3852;52.284;8.032;2022-08-16T02:24:36;19.80;99.90
7622;DHT22;3852;52.284;8.032;2022-08-16T02:27:03;19.80;99.90
7622;DHT22;3852;52.284;8.032;2022-08-16T02:29:31;19.90;99.90
7622;DHT22;3852;52.284;8.032;2022-08-16T02:31:57;19.90;99.90
7622;DHT22;3852;52.284;8.032;2022-08-16T02:34:23;20.00;99.90
7622;DHT22;3852;52.284;8.032;2022-08-16T02:36:49;19.90;99.90
7622;DHT22;3852;52.284;8.032;2022-08-16T02:39:16;19.90;99.90
7622;DHT22;3852;52.284;8.032;2022-08-16T02:41:45;19.90;99.90
7622;DHT22;3852;52.284;8.032;2022-08-16T02:44:14;19.90;99.90
7622;DHT22;3852;52.284;8.032;2022-08-16T02:46:42;19.90;99.90
7622;DHT22;3852;52.284;8.032;2022-08-16T02:49:08;19.80;99.90
7622;DHT22;3852;52.284;8.032;2022-08-16T02:51:36;19.80;99.90
7622;DHT22;3852;52.284;8.032;2022-08-16T02:54:03;19.80;99.90
7622;DHT22;3852;52.284;8.032;2022-08-16T02:56:29;19.70;99.90
7622;DHT22;3852;52.284;8.032;2022-08-16T02:58:55;19.70;99.90
7622;DHT22;3852;52.284;8.032;2022-08-16T03:01:25;19.80;99.90
7622;DHT22;3852;52.284;8.032;2022-08-16T03:03:54;19.90;99.90
7622;DHT22;3852;52.284;8.032;2022-08-16T03:06:21;19.90;99.90
7622;DHT22;3852;52.284;8.032;2022-08-16T03:08:48;20.00;99.90
7622;DHT22;3852;52.284;8.032;2022-08-16T03:11:15;20.00;99.90
7622;DHT22;3852;52.284;8.032;2022-08-16T03:13:44;20.00;99.90
7622;DHT22;3852;52.284;8.032;2022-08-16T03:16:10;20.10;99.90
7622;DHT22;3852;52.284;8.032;2022-08-16T03:18:37;20.10;99.90
7622;DHT22;3852;52.284;8.032;2022-08-16T03:21:04;20.10;99.90
7622;DHT22;3852;52.284;8.032;2022-08-16T03:23:31;20.00;99.90
7622;DHT22;3852;52.284;8.032;2022-08-16T03:25:58;20.00;99.90
7622;DHT22;3852;52.284;8.032;2022-08-16T03:28:24;20.00;99.90
7622;DHT22;3852;52.284;8.032;2022-08-16T03:30:50;20.00;99.90
7622;DHT22;3852;52.284;8.032;2022-08-16T03:33:16;20.00;99.90
7622;DHT22;3852;52.284;8.032;2022-08-16T03:35:42;19.90;99.90
7622;DHT22;3852;52.284;8.032;2022-08-16T03:38:10;19.90;99.90
7622;DHT22;3852;52.284;8.032;2022-08-16T03:40:38;19.90;99.90
7622;DHT22;3852;52.284;8.032;2022-08-16T03:43:07;19.80;99.90
7622;DHT22;3852;52.284;8.032;2022-08-16T03:45:35;19.80;99.90
7622;DHT22;3852;52.284;8.032;2022-08-16T03:48:02;19.80;99.90
7622;DHT22;3852;52.284;8.032;2022-08-16T03:50:29;19.70;99.90
7622;DHT22;3852;52.284;8.032;2022-08-16T03:52:55;19.80;99.90
7622;DHT22;3852;52.284;8.032;2022-08-16T03:55:22;19.70;99.90
7622;DHT22;3852;52.284;8.032;2022-08-16T03:57:47;19.80;99.90
7622;DHT22;3852;52.284;8.032;2022-08-16T04:00:21;19.80;99.90
7622;DHT22;3852;52.284;8.032;2022-08-16T04:02:56;19.70;99.90
7622;DHT22;3852;52.284;8.032;2022-08-16T04:05:23;19.70;99.90
7622;DHT22;3852;52.284;8.032;2022-08-16T04:07:49;19.70;99.90
7622;DHT22;3852;52.284;8.032;2022-08-16T04:10:15;19.60;99.90
7622;DHT22;3852;52.284;8.032;2022-08-16T04:12:43;19.70;99.90
7622;DHT22;3852;52.284;8.032;2022-08-16T04:15:12;19.60;99.90
7622;DHT22;3852;52.284;8.032;2022-08-16T04:17:40;19.60;99.90
7622;DHT22;3852;52.284;8.032;2022-08-16T04:20:07;19.60;99.90
7622;DHT22;3852;52.284;8.032;2022-08-16T04:22:35;19.60;99.90
7622;DHT22;3852;52.284;8.032;2022-08-16T04:25:05;19.60;99.90
7622;DHT22;3852;52.284;8.032;2022-08-16T04:27:34;19.70;99.90
7622;DHT22;3852;52.284;8.032;2022-08-16T04:30:00;19.70;99.90
7622;DHT22;3852;52.284;8.032;2022-08-16T04:32:29;19.70;99.90
7622;DHT22;3852;52.284;8.032;2022-08-16T04:34:55;19.70;99.90
7622;DHT22;3852;52.284;8.032;2022-08-16T04:37:21;19.80;99.90
7622;DHT22;3852;52.284;8.032;2022-08-16T04:39:47;19.80;99.90
7622;DHT22;3852;52.284;8.032;2022-08-16T04:42:16;19.90;99.90
7622;DHT22;3852;52.284;8.032;2022-08-16T04:44:45;19.90;99.90
7622;DHT22;3852;52.284;8.032;2022-08-16T04:47:11;19.90;99.90
7622;DHT22;3852;52.284;8.032;2022-08-16T04:49:37;19.90;99.90
7622;DHT22;3852;52.284;8.032;2022-08-16T04:52:04;19.90;99.90
7622;DHT22;3852;52.284;8.032;2022-08-16T04:54:30;19.90;99.90
7622;DHT22;3852;52.284;8.032;2022-08-16T04:56:56;19.90;99.90
7622;DHT22;3852;52.284;8.032;2022-08-16T04:59:21;19.90;99.90
7622;DHT22;3852;52.284;8.032;2022-08-16T05:01:47;20.00;99.90
7622;DHT22;3852;52.284;8.032;2022-08-16T05:04:13;20.00;99.90
7622;DHT22;3852;52.284;8.032;2022-08-16T05:06:41;20.10;99.90
7622;DHT22;3852;52.284;8.032;2022-08-16T05:09:07;20.10;99.90
7622;DHT22;3852;52.284;8.032;2022-08-16T05:11:34;20.10;99.90
7622;DHT22;3852;52.284;8.032;2022-08-16T05:14:00;20.10;99.90
7622;DHT22;3852;52.284;8.032;2022-08-16T05:16:28;20.10;99.90
7622;DHT22;3852;52.284;8.032;2022-08-16T05:18:56;20.10;99.90
7622;DHT22;3852;52.284;8.032;2022-08-16T05:21:25;20.10;99.90
7622;DHT22;3852;52.284;8.032;2022-08-16T05:23:53;20.20;99.90
7622;DHT22;3852;52.284;8.032;2022-08-16T05:26:19;20.10;99.90
7622;DHT22;3852;52.284;8.032;2022-08-16T05:28:46;20.20;99.90
7622;DHT22;3852;52.284;8.032;2022-08-16T05:31:13;20.20;99.90
7622;DHT22;3852;52.284;8.032;2022-08-16T05:33:41;20.20;99.90
7622;DHT22;3852;52.284;8.032;2022-08-16T05:36:07;20.20;99.90
7622;DHT22;3852;52.284;8.032;2022-08-16T05:38:33;20.20;99.90
7622;DHT22;3852;52.284;8.032;2022-08-16T05:41:00;20.20;99.90
7622;DHT22;3852;52.284;8.032;2022-08-16T05:43:28;20.20;99.90
7622;DHT22;3852;52.284;8.032;2022-08-16T05:45:54;20.30;99.90
7622;DHT22;3852;52.284;8.032;2022-08-16T05:48:21;20.30;99.90
7622;DHT22;3852;52.284;8.032;2022-08-16T05:50:46;20.30;99.90
7622;DHT22;3852;52.284;8.032;2022-08-16T05:53:12;20.40;99.90
7622;DHT22;3852;52.284;8.032;2022-08-16T05:55:39;20.40;99.90
7622;DHT22;3852;52.284;8.032;2022-08-16T05:58:05;20.40;99.90
7622;DHT22;3852;52.284;8.032;2022-08-16T06:00:30;20.40;99.90
7622;DHT22;3852;52.284;8.032;2022-08-16T06:02:56;20.40;99.90
7622;DHT22;3852;52.284;8.032;2022-08-16T06:05:23;20.50;99.90
7622;DHT22;3852;52.284;8.032;2022-08-16T06:07:49;20.50;99.90
7622;DHT22;3852;52.284;8.032;2022-08-16T06:10:16;20.50;99.90
7622;DHT22;3852;52.284;8.032;2022-08-16T06:12:43;20.60;99.90
7622;DHT22;3852;52.284;8.032;2022-08-16T06:15:14;20.70;99.90
7622;DHT22;3852;52.284;8.032;2022-08-16T06:17:43;20.80;99.90
7622;DHT22;3852;52.284;8.032;2022-08-16T06:20:15;20.70;99.90
7622;DHT22;3852;52.284;8.032;2022-08-16T06:22:42;20.90;99.90
7622;DHT22;3852;52.284;8.032;2022-08-16T06:25:11;21.00;99.90
7622;DHT22;3852;52.284;8.032;2022-08-16T06:27:37;20.90;99.90
7622;DHT22;3852;52.284;8.032;2022-08-16T06:30:06;21.00;99.90
7622;DHT22;3852;52.284;8.032;2022-08-16T06:32:33;21.10;99.90
7622;DHT22;3852;52.284;8.032;2022-08-16T06:34:59;21.20;99.90
7622;DHT22;3852;52.284;8.032;2022-08-16T06:37:25;21.20;99.90
7622;DHT22;3852;52.284;8.032;2022-08-16T06:39:50;21.20;99.90
7622;DHT22;3852;52.284;8.032;2022-08-16T06:42:17;21.10;99.90
7622;DHT22;3852;52.284;8.032;2022-08-16T06:44:43;21.10;99.90
7622;DHT22;3852;52.284;8.032;2022-08-16T06:47:08;21.10;99.90
7622;DHT22;3852;52.284;8.032;2022-08-16T06:49:34;21.10;99.90
7622;DHT22;3852;52.284;8.032;2022-08-16T06:52:00;21.20;99.90
7622;DHT22;3852;52.284;8.032;2022-08-16T06:54:26;21.10;99.90
7622;DHT22;3852;52.284;8.032;2022-08-16T06:56:52;21.10;99.90
7622;DHT22;3852;52.284;8.032;2022-08-16T06:59:18;21.20;99.90
7622;DHT22;3852;52.284;8.032;2022-08-16T07:01:43;21.20;99.90
7622;DHT22;3852;52.284;8.032;2022-08-16T07:04:09;21.20;99.90
7622;DHT22;3852;52.284;8.032;2022-08-16T07:06:35;21.30;99.90
7622;DHT22;3852;52.284;8.032;2022-08-16T07:09:02;21.30;99.90
7622;DHT22;3852;52.284;8.032;2022-08-16T07:11:28;21.20;99.90
7622;DHT22;3852;52.284;8.032;2022-08-16T07:13:53;21.30;99.90
7622;DHT22;3852;52.284;8.032;2022-08-16T07:16:19;21.30;99.90
7622;DHT22;3852;52.284;8.032;2022-08-16T07:18:46;21.30;99.90
7622;DHT22;3852;52.284;8.032;2022-08-16T07:21:13;21.40;99.90
7622;DHT22;3852;52.284;8.032;2022-08-16T07:23:40;21.50;99.90
7622;DHT22;3852;52.284;8.032;2022-08-16T07:26:08;21.50;99.90
7622;DHT22;3852;52.284;8.032;2022-08-16T07:28:36;21.60;99.90
7622;DHT22;3852;52.284;8.032;2022-08-16T07:31:02;21.60;99.90
7622;DHT22;3852;52.284;8.032;2022-08-16T07:33:33;21.30;99.90
7622;DHT22;3852;52.284;8.032;2022-08-16T07:36:00;21.30;99.90
7622;DHT22;3852;52.284;8.032;2022-08-16T07:38:26;21.30;99.90
7622;DHT22;3852;52.284;8.032;2022-08-16T07:40:55;21.30;99.90
7622;DHT22;3852;52.284;8.032;2022-08-16T07:43:22;21.30;99.90
7622;DHT22;3852;52.284;8.032;2022-08-16T07:45:49;21.40;99.90
7622;DHT22;3852;52.284;8.032;2022-08-16T07:48:16;21.50;99.90
7622;DHT22;3852;52.284;8.032;2022-08-16T07:50:43;21.60;99.90
7622;DHT22;3852;52.284;8.032;2022-08-16T07:53:10;21.60;99.90
7622;DHT22;3852;52.284;8.032;2022-08-16T07:55:36;22.00;99.90
7622;DHT22;3852;52.284;8.032;2022-08-16T07:58:03;22.30;99.90
7622;DHT22;3852;52.284;8.032;2022-08-16T08:00:30;22.40;99.90
7622;DHT22;3852;52.284;8.032;2022-08-16T08:02:56;22.50;99.90
7622;DHT22;3852;52.284;8.032;2022-08-16T08:05:24;22.50;99.90
7622;DHT22;3852;52.284;8.032;2022-08-16T08:07:51;22.40;99.90
7622;DHT22;3852;52.284;8.032;2022-08-16T08:10:18;22.40;99.90
7622;DHT22;3852;52.284;8.032;2022-08-16T08:12:51;22.50;99.90
7622;DHT22;3852;52.284;8.032;2022-08-16T08:15:19;22.40;99.90
7622;DHT22;3852;52.284;8.032;2022-08-16T08:17:45;22.40;99.90
7622;DHT22;3852;52.284;8.032;2022-08-16T08:20:15;22.50;99.90
7622;DHT22;3852;52.284;8.032;2022-08-16T08:22:44;22.60;99.90
7622;DHT22;3852;52.284;8.032;2022-08-16T08:25:11;22.90;99.90
7622;DHT22;3852;52.284;8.032;2022-08-16T08:27:38;23.10;99.90
7622;DHT22;3852;52.284;8.032;2022-08-16T08:30:04;23.10;99.90
7622;DHT22;3852;52.284;8.032;2022-08-16T08:32:31;23.30;99.90
7622;DHT22;3852;52.284;8.032;2022-08-16T08:34:57;23.60;99.90
7622;DHT22;3852;52.284;8.032;2022-08-16T08:37:25;23.70;99.90
7622;DHT22;3852;52.284;8.032;2022-08-16T08:39:52;23.70;99.90
7622;DHT22;3852;52.284;8.032;2022-08-16T08:42:18;23.90;99.90
7622;DHT22;3852;52.284;8.032;2022-08-16T08:44:44;23.80;99.90
7622;DHT22;3852;52.284;8.032;2022-08-16T08:47:10;23.80;99.90
7622;DHT22;3852;52.284;8.032;2022-08-16T08:49:36;23.90;99.90
7622;DHT22;3852;52.284;8.032;2022-08-16T08:52:05;24.00;99.90
7622;DHT22;3852;52.284;8.032;2022-08-16T08:54:31;24.10;99.90
7622;DHT22;3852;52.284;8.032;2022-08-16T08:56:58;24.10;99.90
7622;DHT22;3852;52.284;8.032;2022-08-16T08:59:24;24.40;99.90
7622;DHT22;3852;52.284;8.032;2022-08-16T09:01:51;24.50;99.90
7622;DHT22;3852;52.284;8.032;2022-08-16T09:04:18;24.50;99.90
7622;DHT22;3852;52.284;8.032;2022-08-16T09:06:44;24.40;99.90
7622;DHT22;3852;52.284;8.032;2022-08-16T09:09:10;24.50;99.90
7622;DHT22;3852;52.284;8.032;2022-08-16T09:11:36;24.70;99.90
7622;DHT22;3852;52.284;8.032;2022-08-16T09:14:03;24.90;99.90
7622;DHT22;3852;52.284;8.032;2022-08-16T09:16:30;24.90;99.90
7622;DHT22;3852;52.284;8.032;2022-08-16T09:18:58;25.10;99.90
7622;DHT22;3852;52.284;8.032;2022-08-16T09:21:24;25.10;99.90
7622;DHT22;3852;52.284;8.032;2022-08-16T09:23:49;25.20;99.90
7622;DHT22;3852;52.284;8.032;2022-08-16T09:26:16;25.30;99.90
7622;DHT22;3852;52.284;8.032;2022-08-16T09:28:42;25.50;99.90
7622;DHT22;3852;52.284;8.032;2022-08-16T09:31:11;25.60;99.90
7622;DHT22;3852;52.284;8.032;2022-08-16T09:33:38;25.80;99.90
7622;DHT22;3852;52.284;8.032;2022-08-16T09:36:04;25.70;99.90
7622;DHT22;3852;52.284;8.032;2022-08-16T09:38:32;25.90;99.90
7622;DHT22;3852;52.284;8.032;2022-08-16T09:41:02;26.00;99.90
7622;DHT22;3852;52.284;8.032;2022-08-16T09:43:30;25.90;99.90
7622;DHT22;3852;52.284;8.032;2022-08-16T09:45:57;26.00;99.90
7622;DHT22;3852;52.284;8.032;2022-08-16T09:48:23;26.00;99.90
7622;DHT22;3852;52.284;8.032;2022-08-16T09:50:49;26.10;99.90
7622;DHT22;3852;52.284;8.032;2022-08-16T09:53:21;26.10;99.90
7622;DHT22;3852;52.284;8.032;2022-08-16T09:55:51;26.20;99.90
7622;DHT22;3852;52.284;8.032;2022-08-16T09:58:23;26.30;99.90
7622;DHT22;3852;52.284;8.032;2022-08-16T10:00:51;26.30;99.90
7622;DHT22;3852;52.284;8.032;2022-08-16T10:03:18;26.30;99.90
7622;DHT22;3852;52.284;8.032;2022-08-16T10:05:45;26.40;99.90
7622;DHT22;3852;52.284;8.032;2022-08-16T10:08:12;26.60;99.90
7622;DHT22;3852;52.284;8.032;2022-08-16T10:10:39;26.70;99.90
7622;DHT22;3852;52.284;8.032;2022-08-16T10:13:06;26.80;99.90
7622;DHT22;3852;52.284;8.032;2022-08-16T10:15:44;26.80;99.90
7622;DHT22;3852;52.284;8.032;2022-08-16T10:18:13;27.00;99.90
7622;DHT22;3852;52.284;8.032;2022-08-16T10:20:44;27.20;99.90
7622;DHT22;3852;52.284;8.032;2022-08-16T10:23:16;27.00;99.90
7622;DHT22;3852;52.284;8.032;2022-08-16T10:25:45;27.20;99.90
7622;DHT22;3852;52.284;8.032;2022-08-16T10:28:12;27.20;99.90
7622;DHT22;3852;52.284;8.032;2022-08-16T10:30:40;27.20;99.90
7622;DHT22;3852;52.284;8.032;2022-08-16T10:33:10;27.40;99.90
7622;DHT22;3852;52.284;8.032;2022-08-16T10:35:38;27.30;99.90
7622;DHT22;3852;52.284;8.032;2022-08-16T10:38:07;27.40;99.90
7622;DHT22;3852;52.284;8.032;2022-08-16T10:40:33;27.60;99.90
7622;DHT22;3852;52.284;8.032;2022-08-16T10:42:59;27.60;99.90
7622;DHT22;3852;52.284;8.032;2022-08-16T10:45:29;27.60;99.90
7622;DHT22;3852;52.284;8.032;2022-08-16T10:47:57;27.70;99.90
7622;DHT22;3852;52.284;8.032;2022-08-16T10:50:24;27.80;99.90
7622;DHT22;3852;52.284;8.032;2022-08-16T10:52:51;27.80;99.90
7622;DHT22;3852;52.284;8.032;2022-08-16T10:55:20;27.70;99.90
7622;DHT22;3852;52.284;8.032;2022-08-16T10:57:46;27.90;99.90
7622;DHT22;3852;52.284;8.032;2022-08-16T11:00:15;28.00;99.90
7622;DHT22;3852;52.284;8.032;2022-08-16T11:02:42;28.00;99.90
7622;DHT22;3852;52.284;8.032;2022-08-16T11:05:10;28.00;99.90
7622;DHT22;3852;52.284;8.032;2022-08-16T11:07:41;28.00;99.90
7622;DHT22;3852;52.284;8.032;2022-08-16T11:10:12;28.10;99.90
7622;DHT22;3852;52.284;8.032;2022-08-16T11:12:39;28.00;99.90
7622;DHT22;3852;52.284;8.032;2022-08-16T11:15:05;28.20;99.90
7622;DHT22;3852;52.284;8.032;2022-08-16T11:17:31;28.40;99.90
7622;DHT22;3852;52.284;8.032;2022-08-16T11:19:56;28.40;99.90
7622;DHT22;3852;52.284;8.032;2022-08-16T11:22:23;28.50;99.90
7622;DHT22;3852;52.284;8.032;2022-08-16T11:24:49;28.60;99.90
7622;DHT22;3852;52.284;8.032;2022-08-16T11:27:17;28.50;99.90
7622;DHT22;3852;52.284;8.032;2022-08-16T11:29:45;28.60;99.90
7622;DHT22;3852;52.284;8.032;2022-08-16T11:32:11;28.70;99.90
7622;DHT22;3852;52.284;8.032;2022-08-16T11:34:37;28.40;99.90
7622;DHT22;3852;52.284;8.032;2022-08-16T11:37:02;28.30;99.90
7622;DHT22;3852;52.284;8.032;2022-08-16T11:39:29;28.10;99.90
7622;DHT22;3852;52.284;8.032;2022-08-16T11:41:56;28.10;99.90
7622;DHT22;3852;52.284;8.032;2022-08-16T11:44:23;28.20;99.90
7622;DHT22;3852;52.284;8.032;2022-08-16T11:46:49;28.10;99.90
7622;DHT22;3852;52.284;8.032;2022-08-16T11:49:15;28.10;99.90
7622;DHT22;3852;52.284;8.032;2022-08-16T11:51:42;28.00;99.90
7622;DHT22;3852;52.284;8.032;2022-08-16T11:54:11;27.90;99.90
7622;DHT22;3852;52.284;8.032;2022-08-16T11:56:37;28.20;99.90
7622;DHT22;3852;52.284;8.032;2022-08-16T11:59:03;28.50;99.90
7622;DHT22;3852;52.284;8.032;2022-08-16T12:01:30;28.40;99.90
7622;DHT22;3852;52.284;8.032;2022-08-16T12:03:56;28.30;99.90
7622;DHT22;3852;52.284;8.032;2022-08-16T12:06:22;28.20;99.90
7622;DHT22;3852;52.284;8.032;2022-08-16T12:08:48;28.00;99.90
7622;DHT22;3852;52.284;8.032;2022-08-16T12:11:14;27.90;99.90
7622;DHT22;3852;52.284;8.032;2022-08-16T12:13:41;27.90;99.90
7622;DHT22;3852;52.284;8.032;2022-08-16T12:16:08;27.80;99.90
7622;DHT22;3852;52.284;8.032;2022-08-16T12:18:36;27.80;99.90
7622;DHT22;3852;52.284;8.032;2022-08-16T12:21:02;27.70;99.90
7622;DHT22;3852;52.284;8.032;2022-08-16T12:23:30;27.60;99.90
7622;DHT22;3852;52.284;8.032;2022-08-16T12:25:56;27.60;99.90
7622;DHT22;3852;52.284;8.032;2022-08-16T12:28:23;27.50;99.90
7622;DHT22;3852;52.284;8.032;2022-08-16T12:30:49;27.40;99.90
7622;DHT22;3852;52.284;8.032;2022-08-16T12:33:15;27.50;99.90
7622;DHT22;3852;52.284;8.032;2022-08-16T12:35:44;27.60;99.90
7622;DHT22;3852;52.284;8.032;2022-08-16T12:38:11;27.80;99.90
7622;DHT22;3852;52.284;8.032;2022-08-16T12:40:40;28.10;99.90
7622;DHT22;3852;52.284;8.032;2022-08-16T12:43:10;28.30;99.90
7622;DHT22;3852;52.284;8.032;2022-08-16T12:45:45;28.70;99.90
7622;DHT22;3852;52.284;8.032;2022-08-16T12:48:15;28.80;99.90
7622;DHT22;3852;52.284;8.032;2022-08-16T12:51:03;28.90;99.90
7622;DHT22;3852;52.284;8.032;2022-08-16T12:53:30;29.00;99.90
7622;DHT22;3852;52.284;8.032;2022-08-16T12:55:59;29.10;99.90
7622;DHT22;3852;52.284;8.032;2022-08-16T12:58:28;29.30;99.90
7622;DHT22;3852;52.284;8.032;2022-08-16T13:00:55;29.40;99.90
7622;DHT22;3852;52.284;8.032;2022-08-16T13:03:21;29.70;99.90
7622;DHT22;3852;52.284;8.032;2022-08-16T13:05:47;29.60;99.90
7622;DHT22;3852;52.284;8.032;2022-08-16T13:08:17;29.80;99.90
7622;DHT22;3852;52.284;8.032;2022-08-16T13:10:45;29.70;99.90
7622;DHT22;3852;52.284;8.032;2022-08-16T13:13:14;29.60;99.90
7622;DHT22;3852;52.284;8.032;2022-08-16T13:15:52;29.50;99.90
7622;DHT22;3852;52.284;8.032;2022-08-16T13:18:20;29.60;99.90
7622;DHT22;3852;52.284;8.032;2022-08-16T13:20:46;29.80;99.90
7622;DHT22;3852;52.284;8.032;2022-08-16T13:23:13;29.80;99.90
7622;DHT22;3852;52.284;8.032;2022-08-16T13:25:42;30.00;99.90
7622;DHT22;3852;52.284;8.032;2022-08-16T13:28:10;30.00;99.90
7622;DHT22;3852;52.284;8.032;2022-08-16T13:30:42;29.80;99.90
7622;DHT22;3852;52.284;8.032;2022-08-16T13:33:36;29.40;99.90
7622;DHT22;3852;52.284;8.032;2022-08-16T13:36:05;29.20;99.90
7622;DHT22;3852;52.284;8.032;2022-08-16T13:38:34;29.30;99.90
7622;DHT22;3852;52.284;8.032;2022-08-16T13:41:00;29.50;99.90
7622;DHT22;3852;52.284;8.032;2022-08-16T13:43:29;29.70;99.90
7622;DHT22;3852;52.284;8.032;2022-08-16T13:45:56;29.90;99.90
7622;DHT22;3852;52.284;8.032;2022-08-16T13:48:26;30.00;99.90
7622;DHT22;3852;52.284;8.032;2022-08-16T13:50:53;30.20;99.90
7622;DHT22;3852;52.284;8.032;2022-08-16T13:53:21;30.10;99.90
7622;DHT22;3852;52.284;8.032;2022-08-16T13:55:47;30.10;99.90
7622;DHT22;3852;52.284;8.032;2022-08-16T13:58:13;30.10;99.90
7622;DHT22;3852;52.284;8.032;2022-08-16T14:00:39;30.00;99.90
7622;DHT22;3852;52.284;8.032;2022-08-16T14:03:07;30.00;99.90
7622;DHT22;3852;52.284;8.032;2022-08-16T14:05:33;30.00;99.90
7622;DHT22;3852;52.284;8.032;2022-08-16T14:07:59;29.90;99.90
7622;DHT22;3852;52.284;8.032;2022-08-16T14:10:25;30.00;99.90
7622;DHT22;3852;52.284;8.032;2022-08-16T14:12:50;30.10;99.90
7622;DHT22;3852;52.284;8.032;2022-08-16T14:15:17;30.00;99.90
7622;DHT22;3852;52.284;8.032;2022-08-16T14:17:43;30.10;99.90
7622;DHT22;3852;52.284;8.032;2022-08-16T14:20:10;30.10;99.90
7622;DHT22;3852;52.284;8.032;2022-08-16T14:22:38;30.10;99.90
7622;DHT22;3852;52.284;8.032;2022-08-16T14:25:17;30.00;99.90
7622;DHT22;3852;52.284;8.032;2022-08-16T14:27:45;29.90;99.90
7622;DHT22;3852;52.284;8.032;2022-08-16T14:30:15;30.00;99.90
7622;DHT22;3852;52.284;8.032;2022-08-16T14:32:43;30.10;99.90
7622;DHT22;3852;52.284;8.032;2022-08-16T14:35:13;30.10;99.90
7622;DHT22;3852;52.284;8.032;2022-08-16T14:37:41;30.00;99.90
7622;DHT22;3852;52.284;8.032;2022-08-16T14:40:10;29.80;99.90
7622;DHT22;3852;52.284;8.032;2022-08-16T14:42:37;29.60;99.90
7622;DHT22;3852;52.284;8.032;2022-08-16T14:45:06;29.50;99.90
7622;DHT22;3852;52.284;8.032;2022-08-16T14:47:34;29.40;99.90
7622;DHT22;3852;52.284;8.032;2022-08-16T14:50:06;29.40;99.90
7622;DHT22;3852;52.284;8.032;2022-08-16T14:52:35;29.60;99.90
7622;DHT22;3852;52.284;8.032;2022-08-16T14:55:01;29.70;99.90
7622;DHT22;3852;52.284;8.032;2022-08-16T14:57:27;29.90;99.90
7622;DHT22;3852;52.284;8.032;2022-08-16T14:59:52;30.00;99.90
7622;DHT22;3852;52.284;8.032;2022-08-16T15:02:21;30.10;99.90
7622;DHT22;3852;52.284;8.032;2022-08-16T15:04:49;30.10;99.90
7622;DHT22;3852;52.284;8.032;2022-08-16T15:07:17;30.00;99.90
7622;DHT22;3852;52.284;8.032;2022-08-16T15:09:45;30.00;99.90
7622;DHT22;3852;52.284;8.032;2022-08-16T15:12:15;29.70;99.90
7622;DHT22;3852;52.284;8.032;2022-08-16T15:14:44;29.60;99.90
7622;DHT22;3852;52.284;8.032;2022-08-16T15:17:12;29.50;99.90
7622;DHT22;3852;52.284;8.032;2022-08-16T15:19:39;29.40;99.90
7622;DHT22;3852;52.284;8.032;2022-08-16T15:22:29;29.40;99.90
7622;DHT22;3852;52.284;8.032;2022-08-16T15:24:58;29.50;99.90
7622;DHT22;3852;52.284;8.032;2022-08-16T15:27:30;29.30;99.90
7622;DHT22;3852;52.284;8.032;2022-08-16T15:29:57;29.20;99.90
7622;DHT22;3852;52.284;8.032;2022-08-16T15:32:23;29.20;99.90
7622;DHT22;3852;52.284;8.032;2022-08-16T15:34:53;29.00;99.90
7622;DHT22;3852;52.284;8.032;2022-08-16T15:37:20;28.90;99.90
7622;DHT22;3852;52.284;8.032;2022-08-16T15:39:46;28.90;99.90
7622;DHT22;3852;52.284;8.032;2022-08-16T15:42:14;28.90;99.90
7622;DHT22;3852;52.284;8.032;2022-08-16T15:44:43;28.80;99.90
7622;DHT22;3852;52.284;8.032;2022-08-16T15:47:13;28.70;99.90
7622;DHT22;3852;52.284;8.032;2022-08-16T15:49:40;28.70;99.90
7622;DHT22;3852;52.284;8.032;2022-08-16T15:52:09;28.70;99.90
7622;DHT22;3852;52.284;8.032;2022-08-16T15:54:39;28.60;99.90
7622;DHT22;3852;52.284;8.032;2022-08-16T15:57:08;28.40;99.90
7622;DHT22;3852;52.284;8.032;2022-08-16T15:59:34;28.40;99.90
7622;DHT22;3852;52.284;8.032;2022-08-16T16:02:00;28.40;99.90
7622;DHT22;3852;52.284;8.032;2022-08-16T16:04:26;28.40;99.90
7622;DHT22;3852;52.284;8.032;2022-08-16T16:06:54;28.50;99.90
7622;DHT22;3852;52.284;8.032;2022-08-16T16:09:21;28.50;99.90
7622;DHT22;3852;52.284;8.032;2022-08-16T16:11:48;28.40;99.90